createdAt,value
2023-10-18T00:00:59.413Z,60.17
2023-10-18T00:04:02.095Z,59.82
2023-10-18T00:07:04.685Z,60.58
2023-10-18T00:10:09.610Z,60.44
2023-10-18T00:13:13.260Z,60.86
2023-10-18T00:16:15.673Z,60.49
2023-10-18T00:19:18.474Z,60.90
2023-10-18T00:22:20.783Z,61.48
2023-10-18T00:25:23.293Z,61.68
2023-10-18T00:28:25.621Z,61.37
2023-10-18T00:31:28.617Z,61.69
2023-10-18T00:34:31.118Z,61.59
2023-10-18T00:37:33.374Z,62.02
2023-10-18T00:40:37.017Z,61.93
2023-10-18T00:43:45.515Z,62.00
2023-10-18T00:46:52.072Z,61.64
2023-10-18T00:49:54.589Z,61.38
2023-10-18T00:52:56.852Z,61.83
2023-10-18T00:56:05.871Z,61.93
2023-10-18T00:59:28.162Z,62.03
2023-10-18T01:02:30.958Z,62.37
2023-10-18T01:05:34.193Z,62.32
2023-10-18T01:08:39.830Z,62.51
2023-10-18T01:11:42.942Z,62.63
2023-10-18T01:14:46.065Z,62.42
2023-10-18T01:17:49.275Z,62.07
2023-10-18T01:20:51.871Z,62.03
2023-10-18T01:23:56.872Z,62.20
2023-10-18T01:27:00.013Z,62.08
2023-10-18T01:30:02.845Z,62.49
2023-10-18T01:33:05.945Z,62.74
2023-10-18T01:36:13.029Z,62.94
2023-10-18T01:39:22.015Z,63.09
2023-10-18T01:42:26.445Z,63.13
2023-10-18T01:45:36.452Z,62.62
2023-10-18T01:48:41.565Z,62.72
2023-10-18T01:51:48.793Z,62.87
2023-10-18T01:54:53.585Z,62.85
2023-10-18T01:57:55.965Z,62.67
2023-10-18T02:00:58.699Z,62.96
2023-10-18T02:04:04.004Z,63.32
2023-10-18T02:07:08.548Z,62.87
2023-10-18T02:10:12.561Z,62.77
2023-10-18T02:13:15.315Z,62.78
2023-10-18T02:16:20.686Z,62.36
2023-10-18T02:19:23.689Z,62.10
2023-10-18T02:22:28.674Z,62.36
2023-10-18T02:25:47.415Z,62.87
2023-10-18T02:28:50.134Z,63.01
2023-10-18T02:31:54.093Z,63.54
2023-10-18T02:34:56.375Z,63.16
2023-10-18T02:37:58.704Z,63.37
2023-10-18T02:41:05.403Z,63.24
2023-10-18T02:44:17.051Z,63.57
2023-10-18T02:47:23.675Z,63.46
2023-10-18T02:50:25.952Z,63.63
2023-10-18T02:53:28.189Z,63.44
2023-10-18T02:56:38.548Z,63.31
2023-10-18T02:59:42.333Z,63.15
2023-10-18T03:02:45.675Z,63.19
2023-10-18T03:05:48.415Z,63.09
2023-10-18T03:08:50.951Z,62.85
2023-10-18T03:11:55.236Z,62.92
2023-10-18T03:14:58.176Z,63.36
2023-10-18T03:18:01.659Z,63.08
2023-10-18T03:21:08.089Z,63.52
2023-10-18T03:24:13.614Z,63.47
2023-10-18T03:27:16.117Z,63.14
2023-10-18T03:30:19.735Z,63.80
2023-10-18T03:33:21.935Z,63.75
2023-10-18T03:36:27.268Z,63.45
2023-10-18T03:39:29.957Z,64.04
2023-10-18T03:42:32.664Z,63.86
2023-10-18T03:45:59.049Z,63.40
2023-10-18T03:49:03.094Z,64.73
2023-10-18T03:52:15.560Z,64.41
2023-10-18T03:55:18.833Z,65.34
2023-10-18T03:58:24.250Z,64.99
2023-10-18T04:01:28.169Z,64.64
2023-10-18T04:04:35.915Z,64.39
2023-10-18T04:07:39.557Z,63.86
2023-10-18T04:10:42.453Z,63.80
2023-10-18T04:13:45.544Z,63.62
2023-10-18T04:16:55.268Z,63.92
2023-10-18T04:19:57.575Z,64.47
2023-10-18T04:23:01.210Z,64.62
2023-10-18T04:26:05.055Z,64.52
2023-10-18T04:29:11.944Z,64.53
2023-10-18T04:32:20.647Z,64.82
2023-10-18T04:35:34.440Z,64.34
2023-10-18T04:38:48.466Z,64.45
2023-10-18T04:41:50.795Z,64.38
2023-10-18T04:44:57.328Z,63.87
2023-10-18T04:48:07.334Z,64.98
2023-10-18T04:51:17.478Z,64.38
2023-10-18T04:54:29.043Z,65.63
2023-10-18T04:57:35.648Z,67.25
2023-10-18T05:00:53.688Z,65.58
2023-10-18T05:04:00.275Z,66.56
2023-10-18T05:07:12.423Z,67.05
2023-10-18T05:10:15.655Z,66.45
2023-10-18T05:13:23.275Z,66.51
2023-10-18T05:16:28.201Z,65.79
2023-10-18T05:19:38.685Z,65.08
2023-10-18T05:22:42.932Z,63.62
2023-10-18T05:25:48.060Z,63.68
2023-10-18T05:28:51.085Z,63.56
2023-10-18T05:32:13.733Z,63.66
2023-10-18T05:35:28.632Z,63.70
2023-10-18T05:38:49.644Z,63.48
2023-10-18T05:41:52.794Z,63.25
2023-10-18T05:44:55.213Z,63.22
2023-10-18T05:48:13.528Z,62.95
2023-10-18T05:51:37.532Z,63.35
2023-10-18T05:54:40.685Z,63.43
2023-10-18T05:57:46.430Z,63.83
2023-10-18T06:00:49.761Z,64.28
2023-10-18T06:03:52.676Z,64.18
2023-10-18T06:06:59.951Z,63.90
2023-10-18T06:10:10.631Z,64.29
2023-10-18T06:13:22.159Z,64.79
2023-10-18T06:16:30.798Z,63.81
2023-10-18T06:19:34.609Z,63.71
2023-10-18T06:22:45.082Z,63.12
2023-10-18T06:25:50.469Z,63.38
2023-10-18T06:28:54.481Z,63.39
2023-10-18T06:31:57.689Z,62.41
2023-10-18T06:35:00.325Z,61.62
2023-10-18T06:38:09.720Z,61.25
2023-10-18T06:41:20.859Z,60.66
2023-10-18T06:44:31.635Z,48.29
2023-10-18T06:47:45.332Z,34.11
2023-10-18T06:50:47.835Z,29.55
2023-10-18T06:53:51.652Z,26.57
2023-10-18T06:56:55.576Z,27.39
2023-10-18T06:59:57.885Z,30.88
2023-10-18T07:03:03.078Z,23.38
2023-10-18T07:06:06.649Z,19.65
2023-10-18T07:09:25.988Z,19.11
2023-10-18T07:12:28.989Z,19.68
2023-10-18T07:15:35.512Z,24.60
2023-10-18T07:18:37.792Z,21.85
2023-10-18T07:21:42.157Z,17.68
2023-10-18T07:24:48.349Z,17.48
2023-10-18T07:27:51.327Z,17.94
2023-10-18T07:30:56.608Z,23.52
2023-10-18T07:34:04.195Z,20.50
2023-10-18T07:37:26.933Z,17.10
2023-10-18T07:40:35.116Z,16.69
2023-10-18T07:43:37.433Z,22.85
2023-10-18T07:46:42.862Z,25.98
2023-10-18T07:49:46.545Z,22.54
2023-10-18T07:52:48.842Z,19.87
2023-10-18T07:55:58.320Z,18.59
2023-10-18T07:59:21.846Z,17.20
2023-10-18T08:02:28.296Z,17.15
2023-10-18T08:05:44.606Z,17.48
2023-10-18T08:08:48.285Z,19.25
2023-10-18T08:11:51.943Z,21.75
2023-10-18T08:14:55.936Z,24.10
2023-10-18T08:18:01.909Z,25.07
2023-10-18T08:21:08.222Z,26.33
2023-10-18T08:24:20.478Z,26.86
2023-10-18T08:27:22.770Z,27.67
2023-10-18T08:30:25.293Z,28.98
2023-10-18T08:33:27.945Z,29.69
2023-10-18T08:36:32.893Z,30.35
2023-10-18T08:39:42.762Z,30.09
2023-10-18T08:42:52.351Z,30.32
2023-10-18T08:45:54.690Z,30.28
2023-10-18T08:48:58.116Z,30.43
2023-10-18T08:52:10.041Z,31.15
2023-10-18T08:55:23.939Z,31.18
2023-10-18T08:58:29.427Z,31.63
2023-10-18T09:01:36.059Z,31.99
2023-10-18T09:04:38.743Z,31.87
2023-10-18T09:07:44.567Z,31.63
2023-10-18T09:10:55.953Z,32.16
2023-10-18T09:14:13.556Z,32.34
2023-10-18T09:17:22.814Z,32.76
2023-10-18T09:20:29.072Z,32.76
2023-10-18T09:23:32.258Z,32.44
2023-10-18T09:26:41.770Z,33.52
2023-10-18T09:29:44.803Z,33.73
2023-10-18T09:32:48.157Z,33.27
2023-10-18T09:35:50.609Z,32.82
2023-10-18T09:38:55.161Z,33.84
2023-10-18T09:42:00.818Z,34.69
2023-10-18T09:45:04.151Z,35.29
2023-10-18T09:48:09.689Z,34.51
2023-10-18T09:51:16.279Z,35.12
2023-10-18T09:54:22.867Z,35.19
2023-10-18T09:57:25.749Z,34.29
2023-10-18T10:00:31.293Z,34.07
2023-10-18T10:03:36.478Z,34.09
2023-10-18T10:06:46.529Z,34.22
2023-10-18T10:09:49.266Z,35.84
2023-10-18T10:12:59.121Z,34.72
2023-10-18T10:16:04.557Z,35.15
2023-10-18T10:19:12.476Z,34.39
2023-10-18T10:22:17.267Z,34.96
2023-10-18T10:25:32.785Z,35.07
2023-10-18T10:29:05.897Z,35.39
2023-10-18T10:32:08.636Z,34.71
2023-10-18T10:35:19.057Z,35.66
2023-10-18T10:38:27.646Z,35.60
2023-10-18T10:41:33.220Z,35.57
2023-10-18T10:45:32.633Z,36.23
2023-10-18T10:48:38.422Z,35.79
2023-10-18T10:51:50.977Z,35.74
2023-10-18T10:55:03.173Z,36.04
2023-10-18T10:58:17.622Z,36.29
2023-10-18T11:01:33.079Z,36.19
2023-10-18T11:04:53.872Z,36.11
2023-10-18T11:08:02.282Z,36.22
2023-10-18T11:11:07.813Z,36.30
2023-10-18T11:14:10.191Z,37.09
2023-10-18T11:17:15.618Z,38.17
2023-10-18T11:20:21.055Z,38.30
2023-10-18T11:23:27.275Z,38.14
2023-10-18T11:26:29.962Z,38.10
2023-10-18T11:29:32.224Z,37.37
2023-10-18T11:32:34.766Z,36.96
2023-10-18T11:35:39.994Z,36.76
2023-10-18T11:39:02.237Z,36.73
2023-10-18T11:42:09.704Z,37.51
2023-10-18T11:45:24.415Z,37.50
2023-10-18T11:48:33.994Z,37.28
2023-10-18T11:51:45.253Z,37.74
2023-10-18T11:54:48.830Z,37.43
2023-10-18T11:57:51.513Z,37.17
2023-10-18T12:01:07.961Z,37.78
2023-10-18T12:04:10.951Z,38.82
2023-10-18T12:07:15.503Z,37.72
2023-10-18T12:10:21.900Z,38.02
2023-10-18T12:13:25.551Z,37.69
2023-10-18T12:16:28.004Z,38.52
2023-10-18T12:19:33.913Z,38.16
2023-10-18T12:22:37.484Z,38.04
2023-10-18T12:25:43.964Z,37.76
2023-10-18T12:28:50.444Z,37.02
2023-10-18T12:31:54.461Z,37.75
2023-10-18T12:34:57.958Z,38.36
2023-10-18T12:38:00.294Z,38.37
2023-10-18T12:41:19.163Z,38.44
2023-10-18T12:44:26.368Z,38.49
2023-10-18T12:47:29.608Z,39.15
2023-10-18T12:50:32.041Z,38.33
2023-10-18T12:53:43.690Z,38.62
2023-10-18T12:57:18.976Z,38.72
2023-10-18T13:00:27.213Z,38.56
2023-10-18T13:03:35.350Z,38.01
2023-10-18T13:06:43.738Z,39.16
2023-10-18T13:09:46.267Z,38.78
2023-10-18T13:13:06.127Z,39.27
2023-10-18T13:16:14.750Z,38.31
2023-10-18T13:19:17.198Z,38.30
2023-10-18T13:22:19.642Z,38.72
2023-10-18T13:25:38.448Z,38.43
2023-10-18T13:28:52.444Z,38.53
2023-10-18T13:32:07.924Z,38.27
2023-10-18T13:35:16.465Z,38.37
2023-10-18T13:38:20.780Z,38.49
2023-10-18T13:41:23.219Z,38.78
2023-10-18T13:44:26.650Z,38.55
2023-10-18T13:47:29.159Z,39.21
2023-10-18T13:50:39.276Z,39.49
2023-10-18T13:53:43.090Z,38.88
2023-10-18T13:56:45.572Z,39.22
2023-10-18T13:59:47.871Z,38.89
2023-10-18T14:02:50.346Z,38.66
2023-10-18T14:05:53.469Z,38.79
2023-10-18T14:08:56.255Z,38.70
2023-10-18T14:12:02.191Z,39.39
2023-10-18T14:15:04.916Z,39.63
2023-10-18T14:18:07.663Z,40.02
2023-10-18T14:21:15.911Z,39.78
2023-10-18T14:24:26.182Z,38.92
2023-10-18T14:27:30.172Z,39.40
2023-10-18T14:30:35.343Z,39.61
2023-10-18T14:33:38.139Z,39.66
2023-10-18T14:36:42.343Z,39.34
2023-10-18T14:39:45.594Z,39.53
2023-10-18T14:42:47.884Z,39.27
2023-10-18T14:45:50.212Z,39.53
2023-10-18T14:48:54.368Z,39.72
2023-10-18T14:51:57.265Z,40.31
2023-10-18T14:55:03.030Z,40.18
2023-10-18T14:58:06.320Z,40.11
2023-10-18T15:01:13.405Z,39.96
2023-10-18T15:04:15.800Z,40.28
2023-10-18T15:07:18.261Z,40.31
2023-10-18T15:10:20.658Z,40.20
2023-10-18T15:13:22.938Z,40.25
2023-10-18T15:16:26.722Z,40.50
2023-10-18T15:19:29.421Z,40.85
2023-10-18T15:22:34.934Z,40.88
2023-10-18T15:25:37.233Z,40.98
2023-10-18T15:28:40.827Z,41.34
2023-10-18T15:31:43.192Z,41.73
2023-10-18T15:34:47.085Z,41.72
2023-10-18T15:37:49.523Z,41.63
2023-10-18T15:40:51.830Z,41.49
2023-10-18T15:43:57.125Z,41.44
2023-10-18T15:47:01.357Z,41.44
2023-10-18T15:50:07.797Z,41.98
2023-10-18T15:53:12.797Z,41.72
2023-10-18T15:56:15.578Z,42.27
2023-10-18T15:59:18.585Z,41.50
2023-10-18T16:02:21.246Z,41.85
2023-10-18T16:05:29.788Z,42.68
2023-10-18T16:08:32.650Z,42.48
2023-10-18T16:11:35.050Z,42.31
2023-10-18T16:14:37.673Z,42.51
2023-10-18T16:17:40.155Z,43.47
2023-10-18T16:20:42.632Z,43.11
2023-10-18T16:23:51.474Z,43.27
2023-10-18T16:26:53.861Z,44.33
2023-10-18T16:29:56.227Z,44.28
2023-10-18T16:32:58.650Z,44.49
2023-10-18T16:36:02.855Z,44.21
2023-10-18T16:39:06.391Z,44.27
2023-10-18T16:42:10.203Z,44.73
2023-10-18T16:45:13.422Z,44.11
2023-10-18T16:48:15.745Z,44.32
2023-10-18T16:51:18.472Z,44.83
2023-10-18T16:54:20.814Z,44.69
2023-10-18T16:57:23.197Z,45.09
2023-10-18T17:00:26.038Z,45.01
2023-10-18T17:03:31.267Z,44.92
2023-10-18T17:06:34.588Z,45.04
2023-10-18T17:09:37.208Z,44.99
2023-10-18T17:12:40.957Z,45.46
2023-10-18T17:15:43.242Z,45.41
2023-10-18T17:18:51.040Z,44.87
2023-10-18T17:21:53.413Z,44.87
2023-10-18T17:25:02.137Z,45.06
2023-10-18T17:28:08.988Z,45.16
2023-10-18T17:31:13.156Z,45.61
2023-10-18T17:34:15.767Z,45.29
2023-10-18T17:37:18.102Z,45.53
2023-10-18T17:40:21.506Z,44.88
2023-10-18T17:43:26.083Z,45.45
2023-10-18T17:46:28.747Z,45.42
2023-10-18T17:49:31.509Z,45.95
2023-10-18T17:52:34.007Z,45.88
2023-10-18T17:55:36.313Z,47.00
2023-10-18T17:58:39.190Z,46.01
2023-10-18T18:01:46.378Z,48.58
2023-10-18T18:04:54.460Z,46.40
2023-10-18T18:07:56.808Z,49.08
2023-10-18T18:10:59.198Z,49.52
2023-10-18T18:14:01.572Z,49.66
2023-10-18T18:17:08.525Z,47.84
2023-10-18T18:20:16.048Z,46.60
2023-10-18T18:23:20.749Z,48.46
2023-10-18T18:26:26.765Z,48.31
2023-10-18T18:29:32.824Z,46.28
2023-10-18T18:32:36.830Z,46.38
2023-10-18T18:35:40.377Z,46.53
2023-10-18T18:38:45.515Z,46.59
2023-10-18T18:41:49.948Z,46.24
2023-10-18T18:44:52.259Z,46.51
2023-10-18T18:47:54.686Z,47.08
2023-10-18T18:50:59.984Z,46.70
2023-10-18T18:54:06.513Z,46.40
2023-10-18T18:57:09.229Z,46.91
2023-10-18T19:00:17.209Z,47.22
2023-10-18T19:03:19.580Z,48.85
2023-10-18T19:06:22.067Z,47.76
2023-10-18T19:09:24.454Z,47.25
2023-10-18T19:12:27.623Z,46.97
2023-10-18T19:15:30.524Z,47.39
2023-10-18T19:18:33.916Z,47.80
2023-10-18T19:21:37.225Z,46.94
2023-10-18T19:24:40.812Z,47.39
2023-10-18T19:27:44.126Z,47.14
2023-10-18T19:30:46.919Z,47.44
2023-10-18T19:33:50.396Z,47.32
2023-10-18T19:37:00.980Z,47.29
2023-10-18T19:40:06.916Z,47.54
2023-10-18T19:43:09.280Z,46.94
2023-10-18T19:46:12.230Z,47.55
2023-10-18T19:49:14.646Z,47.87
2023-10-18T19:52:16.972Z,47.55
2023-10-18T19:55:19.223Z,48.02
2023-10-18T19:58:21.488Z,47.88
2023-10-18T20:01:23.812Z,48.17
2023-10-18T20:04:29.103Z,47.44
2023-10-18T20:07:31.470Z,47.85
2023-10-18T20:10:34.356Z,48.81
2023-10-18T20:13:37.171Z,48.79
2023-10-18T20:16:39.558Z,49.94
2023-10-18T20:19:41.987Z,49.63
2023-10-18T20:22:46.676Z,49.18
2023-10-18T20:25:57.816Z,48.58
2023-10-18T20:29:00.424Z,49.20
2023-10-18T20:32:04.059Z,51.47
2023-10-18T20:35:08.848Z,48.97
2023-10-18T20:38:13.582Z,49.10
2023-10-18T20:41:17.206Z,49.17
2023-10-18T20:44:20.435Z,49.26
2023-10-18T20:47:29.179Z,48.68
2023-10-18T20:50:37.315Z,49.24
2023-10-18T20:53:41.912Z,48.65
2023-10-18T20:56:48.217Z,48.89
2023-10-18T20:59:53.723Z,49.34
2023-10-18T21:02:56.586Z,50.28
2023-10-18T21:05:59.982Z,50.64
2023-10-18T21:09:02.732Z,49.64
2023-10-18T21:12:07.837Z,50.71
2023-10-18T21:15:12.445Z,50.86
2023-10-18T21:18:15.233Z,51.30
2023-10-18T21:21:18.667Z,50.96
2023-10-18T21:24:21.129Z,53.06
2023-10-18T21:27:23.404Z,53.88
2023-10-18T21:30:27.268Z,53.40
2023-10-18T21:33:29.751Z,53.19
2023-10-18T21:36:33.106Z,54.41
2023-10-18T21:39:35.911Z,53.25
2023-10-18T21:42:41.484Z,53.47
2023-10-18T21:45:43.722Z,52.97
2023-10-18T21:48:46.246Z,54.32
2023-10-18T21:51:48.512Z,54.33
2023-10-18T21:54:51.222Z,54.30
2023-10-18T21:57:53.534Z,53.09
2023-10-18T22:01:03.810Z,52.32
2023-10-18T22:04:08.486Z,52.64
2023-10-18T22:07:16.341Z,52.53
2023-10-18T22:10:23.436Z,53.33
2023-10-18T22:13:32.004Z,52.71
2023-10-18T22:16:36.970Z,51.72
2023-10-18T22:19:39.340Z,52.58
2023-10-18T22:22:42.063Z,51.98
2023-10-18T22:25:56.276Z,51.58
2023-10-18T22:29:10.577Z,51.12
2023-10-18T22:35:18.740Z,51.09
2023-10-18T22:38:21.910Z,51.00
2023-10-18T22:41:33.542Z,52.36
2023-10-18T22:44:42.461Z,51.60
2023-10-18T22:47:45.501Z,50.48
2023-10-18T22:50:55.917Z,51.42
2023-10-18T22:54:04.517Z,51.12
2023-10-18T22:57:19.130Z,50.85
2023-10-18T23:00:32.882Z,51.43
2023-10-18T23:03:37.471Z,51.06
2023-10-18T23:06:41.098Z,50.60
2023-10-18T23:09:46.229Z,50.63
2023-10-18T23:12:48.500Z,50.32
2023-10-18T23:15:57.501Z,50.96
2023-10-18T23:19:00.403Z,50.88
2023-10-18T23:22:15.723Z,51.10
2023-10-18T23:25:36.902Z,50.51
2023-10-18T23:28:47.186Z,50.70
2023-10-18T23:32:19.050Z,50.71
2023-10-18T23:35:27.959Z,50.54
2023-10-18T23:38:39.650Z,50.38
2023-10-18T23:41:49.611Z,51.00
2023-10-18T23:44:54.460Z,50.29
2023-10-18T23:48:25.720Z,51.21
2023-10-18T23:51:34.863Z,51.16
2023-10-18T23:54:37.655Z,50.72
2023-10-18T23:57:40.362Z,51.25
